Time;durP1;ratioP1;P1;durP2;ratioP2;P2;SDS_P1;SDS_P2;PMS_P1;PMS_P2;Temp;Humidity;BMP_temperature;BMP_pressure;BME280_temperature;BME280_humidity;BME280_pressure;Samples;Min_cycle;Max_cycle;Signal;HPM_P1;HPM_P2
2021/05/16 00:00:16;;;;;;;16.40;13.32;;;10.90;91.80;;;;;;5055523;28;20129;-55
2021/05/16 00:02:43;;;;;;;17.90;15.02;;;10.90;91.90;;;;;;5075734;28;20099;-55
2021/05/16 00:05:09;;;;;;;17.67;14.10;;;10.90;91.90;;;;;;5058466;28;20025;-54
2021/05/16 00:07:35;;;;;;;18.27;15.35;;;10.90;92.00;;;;;;5080010;28;20131;-54
2021/05/16 00:10:06;;;;;;;16.58;14.02;;;10.80;92.00;;;;;;5072880;28;20064;-55
2021/05/16 00:12:32;;;;;;;16.25;13.80;;;10.90;92.10;;;;;;5055286;28;20071;-56
2021/05/16 00:14:58;;;;;;;18.67;15.40;;;10.90;92.30;;;;;;5074594;28;20080;-55
2021/05/16 00:17:24;;;;;;;18.27;14.55;;;10.90;92.30;;;;;;5081675;28;20201;-54
2021/05/16 00:19:50;;;;;;;19.15;14.52;;;10.80;92.30;;;;;;5078559;28;20044;-55
2021/05/16 00:22:18;;;;;;;16.90;14.60;;;10.80;92.40;;;;;;5058746;28;20043;-56
2021/05/16 00:24:43;;;;;;;18.98;15.02;;;10.80;92.40;;;;;;5055432;28;20040;-55
2021/05/16 00:27:09;;;;;;;20.80;15.77;;;10.80;92.40;;;;;;5088641;28;20407;-53
2021/05/16 00:29:35;;;;;;;18.77;15.63;;;10.80;92.50;;;;;;5079849;28;20451;-54
2021/05/16 00:32:01;;;;;;;20.35;16.08;;;10.70;92.80;;;;;;5077812;28;20036;-52
2021/05/16 00:34:26;;;;;;;18.63;15.73;;;10.80;92.60;;;;;;5065604;28;20130;-55
2021/05/16 00:36:52;;;;;;;20.50;16.42;;;10.80;92.70;;;;;;5083142;28;20044;-54
2021/05/16 00:39:18;;;;;;;21.00;16.40;;;10.70;92.70;;;;;;5078207;28;20109;-54
2021/05/16 00:41:44;;;;;;;20.38;16.98;;;10.70;92.70;;;;;;5081134;28;20047;-54
2021/05/16 00:44:10;;;;;;;22.23;17.40;;;10.70;93.00;;;;;;5066694;28;20083;-53
2021/05/16 00:46:36;;;;;;;21.63;16.83;;;10.70;92.80;;;;;;5061910;28;20047;-55
2021/05/16 00:49:02;;;;;;;21.13;17.27;;;10.70;92.90;;;;;;5080207;28;20048;-58
2021/05/16 00:51:28;;;;;;;22.73;17.30;;;10.70;92.90;;;;;;5077836;28;20047;-55
2021/05/16 00:53:55;;;;;;;22.02;17.23;;;10.70;93.00;;;;;;5082855;28;20041;-54
2021/05/16 00:56:21;;;;;;;24.75;18.35;;;10.60;92.80;;;;;;5077308;28;20036;-56
2021/05/16 00:58:47;;;;;;;22.33;18.67;;;10.60;92.90;;;;;;5076180;28;20094;-53
2021/05/16 01:01:14;;;;;;;23.92;19.25;;;10.60;92.90;;;;;;5088957;28;20036;-56
2021/05/16 01:03:41;;;;;;;24.25;19.05;;;10.60;93.00;;;;;;5056920;28;20075;-56
2021/05/16 01:06:07;;;;;;;23.15;18.63;;;10.50;93.00;;;;;;5083986;28;20476;-56
2021/05/16 01:08:33;;;;;;;22.65;18.13;;;10.50;93.10;;;;;;5076768;28;20036;-55
2021/05/16 01:10:59;;;;;;;23.63;19.65;;;10.50;93.00;;;;;;5066770;28;20063;-55
2021/05/16 01:13:26;;;;;;;24.90;19.77;;;10.50;93.20;;;;;;5074903;28;20033;-55
2021/05/16 01:15:52;;;;;;;26.48;20.35;;;10.50;93.10;;;;;;5077578;28;20356;-57
2021/05/16 01:18:17;;;;;;;23.02;18.63;;;10.40;93.10;;;;;;5075706;28;20040;-55
2021/05/16 01:20:48;;;;;;;24.35;18.70;;;10.40;93.20;;;;;;5076535;28;20070;-54
2021/05/16 01:23:16;;;;;;;23.58;17.98;;;10.40;93.10;;;;;;5071984;28;20437;-55
2021/05/16 01:25:47;;;;;;;23.10;19.33;;;10.40;93.20;;;;;;5075994;28;20040;-56
2021/05/16 01:28:14;;;;;;;24.67;19.33;;;10.40;93.30;;;;;;5077729;28;20515;-54
2021/05/16 01:30:41;;;;;;;22.95;19.33;;;10.40;93.30;;;;;;5067867;28;20040;-54
2021/05/16 01:33:08;;;;;;;23.20;18.33;;;10.40;93.30;;;;;;5073406;28;20044;-54
2021/05/16 01:35:34;;;;;;;23.17;18.85;;;10.40;93.40;;;;;;5070706;28;20044;-55
2021/05/16 01:38:01;;;;;;;22.98;18.98;;;10.40;93.40;;;;;;5073720;28;20041;-56
2021/05/16 01:40:27;;;;;;;22.90;17.88;;;10.40;93.30;;;;;;5067377;28;20044;-56
2021/05/16 01:42:54;;;;;;;24.33;17.30;;;10.50;93.40;;;;;;5055699;28;20045;-54
2021/05/16 01:45:25;;;;;;;23.00;18.58;;;10.50;93.40;;;;;;5069872;28;20484;-54
2021/05/16 01:47:53;;;;;;;24.60;17.70;;;10.50;93.40;;;;;;5047679;28;20485;-55
2021/05/16 01:50:20;;;;;;;19.88;16.83;;;10.50;93.30;;;;;;5073906;28;20120;-54
2021/05/16 01:52:47;;;;;;;22.67;17.42;;;10.50;93.30;;;;;;5074656;28;20090;-54
2021/05/16 01:55:16;;;;;;;22.83;18.23;;;10.40;93.30;;;;;;5077838;28;20036;-55
2021/05/16 01:57:43;;;;;;;25.02;17.60;;;10.40;93.20;;;;;;5076596;28;20045;-54
2021/05/16 02:00:12;;;;;;;21.65;17.45;;;10.40;93.20;;;;;;5061831;28;20040;-56
2021/05/16 02:02:39;;;;;;;21.50;16.85;;;10.40;93.20;;;;;;5066427;28;20059;-57
2021/05/16 02:05:09;;;;;;;21.45;17.40;;;10.40;93.30;;;;;;5063322;28;20036;-54
2021/05/16 02:07:36;;;;;;;22.63;16.67;;;10.30;93.20;;;;;;5074546;28;20538;-57
2021/05/16 02:10:06;;;;;;;22.23;16.48;;;10.30;93.10;;;;;;5072579;28;20055;-55
2021/05/16 02:12:32;;;;;;;21.27;16.10;;;10.20;93.20;;;;;;5065659;28;20132;-55
2021/05/16 02:15:02;;;;;;;20.52;15.98;;;10.20;93.20;;;;;;5057102;28;20067;-55
2021/05/16 02:17:29;;;;;;;19.88;16.00;;;10.20;93.40;;;;;;5058809;28;20500;-56
2021/05/16 02:19:55;;;;;;;19.58;15.30;;;10.10;93.10;;;;;;5069906;28;20565;-54
2021/05/16 02:22:21;;;;;;;20.40;15.60;;;10.10;93.20;;;;;;5071187;28;20058;-57
2021/05/16 02:24:46;;;;;;;21.27;15.75;;;10.10;93.10;;;;;;5071171;28;20044;-54
2021/05/16 02:27:12;;;;;;;20.35;15.43;;;10.10;93.10;;;;;;5072248;28;20052;-55
2021/05/16 02:29:38;;;;;;;20.55;15.45;;;10.00;93.10;;;;;;5078811;28;20514;-55
2021/05/16 02:32:07;;;;;;;20.23;14.93;;;10.00;93.10;;;;;;5065761;28;20068;-56
2021/05/16 02:34:33;;;;;;;20.95;16.17;;;10.00;93.10;;;;;;5013156;28;20803;-54
2021/05/16 02:36:59;;;;;;;19.40;15.52;;;10.00;93.10;;;;;;5082463;28;20132;-56
2021/05/16 02:39:26;;;;;;;22.13;16.13;;;9.90;93.10;;;;;;5058543;28;20160;-53
2021/05/16 02:41:52;;;;;;;23.45;15.93;;;10.00;93.20;;;;;;5075179;28;20036;-56
2021/05/16 02:44:18;;;;;;;22.90;15.90;;;9.90;93.20;;;;;;5069511;28;20496;-54
2021/05/16 02:46:46;;;;;;;25.23;16.52;;;9.90;93.20;;;;;;5073316;28;20385;-55
2021/05/16 02:49:13;;;;;;;25.33;16.92;;;10.00;93.30;;;;;;5073213;28;20045;-53
2021/05/16 02:51:39;;;;;;;26.52;16.33;;;10.00;93.30;;;;;;5090118;28;20036;-54
2021/05/16 02:54:06;;;;;;;27.08;16.88;;;10.00;93.30;;;;;;5071493;28;20786;-57
2021/05/16 02:56:32;;;;;;;22.83;16.65;;;10.00;93.30;;;;;;5053235;28;20106;-55
2021/05/16 02:58:59;;;;;;;25.27;17.10;;;10.00;93.20;;;;;;5078897;28;20064;-56
2021/05/16 03:01:24;;;;;;;29.02;18.02;;;10.00;93.20;;;;;;5051965;28;20043;-55
2021/05/16 03:03:50;;;;;;;29.50;17.02;;;10.00;93.20;;;;;;5073029;28;20049;-55
2021/05/16 03:06:17;;;;;;;27.00;16.95;;;10.00;93.20;;;;;;5076128;28;20500;-54
2021/05/16 03:08:43;;;;;;;26.17;17.08;;;10.00;93.20;;;;;;5084114;28;20127;-56
2021/05/16 03:11:09;;;;;;;26.55;17.48;;;10.00;93.30;;;;;;5074802;28;20064;-56
2021/05/16 03:13:34;;;;;;;26.83;17.42;;;10.00;93.30;;;;;;5058405;28;20131;-56
2021/05/16 03:16:00;;;;;;;27.67;17.90;;;10.00;93.20;;;;;;5072082;28;20588;-54
2021/05/16 03:18:26;;;;;;;27.48;17.38;;;9.90;93.20;;;;;;5076066;28;20044;-57
2021/05/16 03:20:51;;;;;;;28.00;17.23;;;9.90;93.20;;;;;;5072670;28;20036;-57
2021/05/16 03:23:18;;;;;;;29.67;17.15;;;9.90;93.20;;;;;;5059683;28;20128;-58
2021/05/16 03:25:44;;;;;;;26.55;16.55;;;9.90;93.30;;;;;;5067867;28;20032;-57
2021/05/16 03:28:10;;;;;;;26.17;17.15;;;9.90;93.30;;;;;;5071529;28;20056;-57
2021/05/16 03:30:36;;;;;;;26.40;17.05;;;9.90;93.20;;;;;;5072721;28;20446;-58
2021/05/16 03:33:05;;;;;;;25.52;17.10;;;9.90;93.20;;;;;;5064443;28;20070;-56
2021/05/16 03:35:31;;;;;;;34.22;17.48;;;9.90;93.30;;;;;;5074336;28;20039;-55
2021/05/16 03:37:57;;;;;;;27.52;17.48;;;10.00;93.30;;;;;;5053230;28;20048;-56
2021/05/16 03:40:23;;;;;;;29.45;17.42;;;10.00;93.20;;;;;;5070913;28;20531;-57
2021/05/16 03:42:50;;;;;;;34.13;18.05;;;10.00;93.30;;;;;;5075818;28;20397;-56
2021/05/16 03:45:16;;;;;;;27.83;17.60;;;10.00;93.30;;;;;;5041118;28;20508;-56
2021/05/16 03:47:42;;;;;;;27.45;17.73;;;10.00;93.30;;;;;;5056258;28;20127;-56
2021/05/16 03:50:10;;;;;;;28.00;18.05;;;10.10;93.30;;;;;;5068752;28;20048;-56
2021/05/16 03:52:37;;;;;;;31.90;18.45;;;10.10;93.30;;;;;;5061410;28;20131;-56
2021/05/16 03:55:04;;;;;;;31.35;18.60;;;10.10;93.30;;;;;;5079574;28;20435;-56
2021/05/16 03:57:30;;;;;;;28.60;17.67;;;10.10;93.30;;;;;;5057350;28;20530;-56
2021/05/16 03:59:56;;;;;;;29.60;18.75;;;10.10;93.30;;;;;;5053933;28;20040;-56
2021/05/16 04:02:23;;;;;;;31.30;18.85;;;10.10;93.30;;;;;;5069857;28;20777;-56
2021/05/16 04:04:49;;;;;;;30.73;18.30;;;10.20;93.40;;;;;;5041135;28;20048;-54
2021/05/16 04:07:16;;;;;;;28.77;18.25;;;10.20;93.40;;;;;;5055877;28;20041;-56
2021/05/16 04:09:41;;;;;;;32.80;19.45;;;10.20;93.40;;;;;;5071910;28;20033;-57
2021/05/16 04:12:07;;;;;;;32.65;19.48;;;10.20;93.40;;;;;;5071100;28;20055;-57
2021/05/16 04:14:33;;;;;;;35.85;19.90;;;10.20;93.40;;;;;;5050070;28;20300;-53
2021/05/16 04:16:59;;;;;;;33.45;19.98;;;10.30;93.40;;;;;;5070286;28;20050;-54
2021/05/16 04:19:25;;;;;;;30.67;18.42;;;10.30;93.40;;;;;;5077981;28;20312;-54
2021/05/16 04:21:51;;;;;;;33.92;19.85;;;10.30;93.40;;;;;;5033641;28;20037;-56
2021/05/16 04:24:16;;;;;;;28.85;19.52;;;10.30;93.40;;;;;;5070232;28;20155;-55
2021/05/16 04:26:42;;;;;;;32.85;18.95;;;10.40;93.60;;;;;;5074187;28;20465;-57
2021/05/16 04:29:08;;;;;;;33.95;20.73;;;10.40;93.40;;;;;;5065681;28;20041;-57
2021/05/16 04:31:34;;;;;;;33.10;20.13;;;10.40;93.50;;;;;;5047601;28;20044;-56
2021/05/16 04:34:00;;;;;;;36.17;20.42;;;10.40;93.40;;;;;;5046183;28;20041;-57
2021/05/16 04:36:26;;;;;;;31.42;20.42;;;10.40;93.40;;;;;;5075545;28;20045;-55
2021/05/16 04:38:52;;;;;;;35.80;20.98;;;10.50;93.50;;;;;;5080131;28;20114;-53
2021/05/16 04:41:19;;;;;;;31.02;19.00;;;10.50;93.60;;;;;;5071348;28;20047;-55
2021/05/16 04:43:47;;;;;;;33.05;20.25;;;10.50;93.40;;;;;;5055642;28;20161;-56
2021/05/16 04:46:13;;;;;;;35.03;20.08;;;10.50;93.60;;;;;;5070385;28;20515;-55
2021/05/16 04:48:38;;;;;;;31.85;18.73;;;10.50;93.60;;;;;;5070319;28;20041;-56
2021/05/16 04:51:05;;;;;;;32.03;20.10;;;10.60;93.60;;;;;;5063738;28;20187;-56
2021/05/16 04:53:34;;;;;;;31.77;19.45;;;10.60;93.60;;;;;;5036438;28;20114;-56
2021/05/16 04:56:00;;;;;;;33.80;20.40;;;10.60;93.50;;;;;;5073443;28;20055;-55
2021/05/16 04:58:27;;;;;;;33.20;20.73;;;10.60;93.60;;;;;;5071425;28;20043;-55
2021/05/16 05:00:53;;;;;;;31.25;21.33;;;10.70;93.60;;;;;;5074334;28;20382;-55
2021/05/16 05:03:21;;;;;;;34.67;20.55;;;10.70;93.60;;;;;;5069865;28;20043;-54
2021/05/16 05:05:47;;;;;;;35.00;20.15;;;10.70;93.60;;;;;;5076736;28;20408;-54
2021/05/16 05:08:14;;;;;;;32.63;20.80;;;10.70;93.60;;;;;;5053992;28;20044;-55
2021/05/16 05:10:39;;;;;;;33.10;21.05;;;10.70;93.60;;;;;;5077955;28;20477;-55
2021/05/16 05:13:05;;;;;;;33.35;19.95;;;10.80;93.60;;;;;;5068599;28;20039;-56
2021/05/16 05:15:31;;;;;;;35.92;20.52;;;10.80;93.60;;;;;;5077016;28;20370;-54
2021/05/16 05:17:56;;;;;;;31.58;20.92;;;10.80;93.60;;;;;;5070790;28;20044;-52
2021/05/16 05:20:23;;;;;;;32.78;20.17;;;10.80;93.70;;;;;;5075811;28;20048;-52
2021/05/16 05:22:49;;;;;;;33.42;20.30;;;10.90;93.60;;;;;;5065908;28;20048;-54
2021/05/16 05:25:14;;;;;;;38.42;20.63;;;10.90;93.60;;;;;;5071790;28;20040;-54
2021/05/16 05:27:42;;;;;;;33.63;20.80;;;10.90;93.50;;;;;;5075864;28;20041;-55
2021/05/16 05:30:10;;;;;;;38.80;21.48;;;10.90;93.50;;;;;;5079310;28;20407;-55
2021/05/16 05:32:36;;;;;;;35.25;19.17;;;11.00;93.60;;;;;;5073472;28;20444;-52
2021/05/16 05:35:03;;;;;;;35.22;19.17;;;11.00;93.50;;;;;;5072265;28;20075;-56
2021/05/16 05:37:29;;;;;;;34.50;20.27;;;11.00;93.70;;;;;;5076249;28;20072;-54
2021/05/16 05:39:54;;;;;;;33.40;20.38;;;11.00;93.50;;;;;;5080093;28;20072;-55
2021/05/16 05:42:23;;;;;;;30.23;18.52;;;11.10;93.60;;;;;;5073653;28;20055;-55
2021/05/16 05:44:49;;;;;;;36.53;20.17;;;11.10;93.40;;;;;;5054098;28;20302;-54
2021/05/16 05:47:15;;;;;;;39.58;20.02;;;11.10;93.50;;;;;;5069689;28;20505;-53
2021/05/16 05:49:41;;;;;;;33.10;19.08;;;11.10;93.30;;;;;;5075797;28;20101;-53
2021/05/16 05:52:06;;;;;;;42.53;19.48;;;11.10;93.30;;;;;;5076529;28;20476;-54
2021/05/16 05:54:34;;;;;;;36.55;18.95;;;11.10;93.30;;;;;;5074237;28;20147;-55
2021/05/16 05:57:00;;;;;;;37.60;19.50;;;11.10;93.40;;;;;;5079901;28;20041;-54
2021/05/16 05:59:25;;;;;;;43.17;20.83;;;11.10;93.40;;;;;;5072993;28;20067;-55
2021/05/16 06:01:51;;;;;;;34.25;19.45;;;11.10;93.80;;;;;;5073335;28;20514;-51
2021/05/16 06:04:17;;;;;;;43.17;19.02;;;11.10;93.60;;;;;;5067572;28;20149;-53
2021/05/16 06:06:43;;;;;;;38.70;19.98;;;11.10;93.60;;;;;;5073721;28;20051;-53
2021/05/16 06:09:09;;;;;;;37.20;18.35;;;11.20;93.60;;;;;;5071929;28;20044;-52
2021/05/16 06:11:35;;;;;;;37.33;19.10;;;11.30;93.50;;;;;;5067471;28;20126;-54
2021/05/16 06:14:00;;;;;;;41.13;18.83;;;11.30;93.50;;;;;;5074673;28;20483;-53
2021/05/16 06:16:26;;;;;;;34.75;19.45;;;11.30;93.50;;;;;;5071646;28;20496;-55
2021/05/16 06:18:54;;;;;;;37.78;19.67;;;11.30;93.50;;;;;;5078260;28;20428;-55
2021/05/16 06:21:19;;;;;;;40.38;18.75;;;11.30;93.60;;;;;;5060313;28;20079;-53
2021/05/16 06:24:06;;;;;;;41.40;18.73;;;11.40;93.60;;;;;;5079333;28;20072;-55
2021/05/16 06:26:36;;;;;;;49.38;18.40;;;11.40;93.60;;;;;;5063651;28;20145;-53
2021/05/16 06:29:05;;;;;;;49.10;19.35;;;11.40;93.50;;;;;;5078294;28;20086;-52
2021/05/16 06:31:31;;;;;;;39.03;18.42;;;11.30;93.50;;;;;;5083290;28;20130;-53
2021/05/16 06:33:57;;;;;;;44.55;18.92;;;11.30;93.50;;;;;;5073111;28;20067;-52
2021/05/16 06:36:23;;;;;;;42.10;19.35;;;11.30;93.60;;;;;;5075088;28;20049;-53
2021/05/16 06:38:49;;;;;;;41.70;19.15;;;11.30;93.70;;;;;;5032089;28;20055;-54
2021/05/16 06:41:18;;;;;;;46.33;18.90;;;11.30;93.70;;;;;;5070252;28;20480;-54
2021/05/16 06:43:43;;;;;;;48.88;19.40;;;11.30;93.90;;;;;;5068828;28;20078;-53
2021/05/16 06:46:10;;;;;;;46.50;19.13;;;11.20;93.80;;;;;;5038852;28;20048;-53
2021/05/16 06:48:36;;;;;;;42.03;17.85;;;11.30;93.90;;;;;;5054029;28;20041;-54
2021/05/16 06:51:06;;;;;;;45.22;18.80;;;11.30;94.00;;;;;;5070688;28;20431;-53
2021/05/16 06:53:33;;;;;;;40.05;18.58;;;11.30;93.80;;;;;;5071482;28;20047;-54
2021/05/16 06:55:59;;;;;;;49.97;19.30;;;11.30;93.80;;;;;;5071134;28;20493;-52
2021/05/16 06:58:25;;;;;;;39.67;17.30;;;11.40;93.80;;;;;;5052242;28;20400;-53
2021/05/16 07:00:51;;;;;;;37.22;17.30;;;11.40;93.90;;;;;;5070940;28;20048;-53
2021/05/16 07:03:17;;;;;;;42.08;17.95;;;11.50;93.70;;;;;;5071496;28;20060;-53
2021/05/16 07:05:43;;;;;;;39.58;18.40;;;11.50;93.70;;;;;;5072076;28;20484;-52
2021/05/16 07:08:09;;;;;;;36.08;15.98;;;11.60;93.60;;;;;;5068712;28;20043;-53
2021/05/16 07:10:36;;;;;;;35.28;13.70;;;11.60;93.70;;;;;;5054199;28;20044;-52
2021/05/16 07:13:02;;;;;;;32.50;12.55;;;11.60;93.30;;;;;;5036019;28;20040;-56
2021/05/16 07:15:28;;;;;;;24.05;12.00;;;11.60;93.00;;;;;;5068203;28;20094;-53
2021/05/16 07:17:53;;;;;;;27.80;12.43;;;11.50;93.10;;;;;;5073214;28;20049;-55
2021/05/16 07:20:19;;;;;;;26.63;12.80;;;11.50;93.00;;;;;;5071517;28;20033;-52
2021/05/16 07:22:45;;;;;;;31.55;12.75;;;11.60;93.20;;;;;;5054641;28;20123;-52
2021/05/16 07:25:14;;;;;;;25.70;13.48;;;11.60;93.30;;;;;;5072646;28;20057;-52
2021/05/16 07:27:40;;;;;;;34.10;14.85;;;11.60;93.20;;;;;;5069048;28;20655;-53
2021/05/16 07:30:06;;;;;;;33.20;14.90;;;11.60;93.20;;;;;;5068540;28;20032;-51
2021/05/16 07:32:33;;;;;;;34.72;15.55;;;11.60;93.20;;;;;;5067631;28;20033;-53
2021/05/16 07:34:59;;;;;;;37.40;15.70;;;11.70;93.30;;;;;;5067701;28;20037;-53
2021/05/16 07:37:25;;;;;;;30.42;15.10;;;11.80;93.50;;;;;;5017552;28;20113;-53
2021/05/16 07:39:51;;;;;;;34.38;15.65;;;11.80;93.40;;;;;;5062421;28;20393;-53
2021/05/16 07:42:18;;;;;;;37.30;14.43;;;11.80;93.20;;;;;;5051638;28;20045;-53
2021/05/16 07:44:47;;;;;;;32.90;14.70;;;11.80;93.10;;;;;;5057173;28;20032;-53
2021/05/16 07:47:13;;;;;;;32.30;16.13;;;11.90;93.10;;;;;;5064492;28;20051;-52
2021/05/16 07:49:39;;;;;;;33.53;14.50;;;12.00;93.10;;;;;;5064581;28;20043;-50
2021/05/16 07:52:05;;;;;;;29.02;13.73;;;12.10;93.10;;;;;;5071795;28;20047;-54
2021/05/16 07:54:31;;;;;;;28.67;13.20;;;12.10;92.90;;;;;;5071308;28;20115;-53
2021/05/16 07:56:58;;;;;;;30.35;13.95;;;12.20;92.80;;;;;;5069567;28;20043;-55
2021/05/16 07:59:24;;;;;;;28.10;13.50;;;12.30;92.60;;;;;;5058237;28;20052;-54
2021/05/16 08:01:50;;;;;;;28.08;12.73;;;12.40;92.40;;;;;;5064643;28;20411;-52
2021/05/16 08:04:17;;;;;;;30.40;13.35;;;12.50;92.10;;;;;;5071386;28;20044;-55
2021/05/16 08:06:45;;;;;;;27.02;11.82;;;12.50;92.00;;;;;;5050464;28;20580;-53
2021/05/16 08:09:11;;;;;;;29.13;12.70;;;12.40;91.90;;;;;;5070448;28;20135;-53
2021/05/16 08:11:37;;;;;;;26.35;12.40;;;12.40;91.50;;;;;;5052994;28;20633;-53
2021/05/16 08:14:03;;;;;;;25.88;12.40;;;12.30;91.70;;;;;;5070378;28;20423;-55
2021/05/16 08:16:30;;;;;;;26.73;13.65;;;12.20;91.70;;;;;;5059180;28;20049;-53
2021/05/16 08:18:57;;;;;;;31.88;14.55;;;12.20;91.80;;;;;;5066473;28;20094;-53
2021/05/16 08:21:22;;;;;;;25.15;11.95;;;12.20;91.90;;;;;;5071717;28;20041;-52
2021/05/16 08:23:48;;;;;;;32.90;12.82;;;12.10;92.00;;;;;;5053144;28;20044;-51
2021/05/16 08:26:14;;;;;;;22.67;9.38;;;12.00;92.00;;;;;;5071937;28;20041;-52
2021/05/16 08:28:39;;;;;;;19.35;8.90;;;11.90;92.10;;;;;;5066989;28;20040;-51
2021/05/16 08:31:05;;;;;;;18.15;8.63;;;11.80;92.10;;;;;;5054042;28;20131;-54
2021/05/16 08:33:31;;;;;;;17.10;8.48;;;11.80;92.30;;;;;;5037390;28;20404;-51
2021/05/16 08:35:56;;;;;;;20.00;8.38;;;11.70;92.40;;;;;;5072479;28;20041;-52
2021/05/16 08:38:22;;;;;;;19.92;8.02;;;11.70;92.60;;;;;;5057613;28;20037;-53
2021/05/16 08:40:48;;;;;;;19.77;7.85;;;11.60;92.40;;;;;;5062939;28;20032;-49
2021/05/16 08:43:15;;;;;;;23.23;8.50;;;11.60;92.50;;;;;;5073163;28;20036;-55
2021/05/16 08:45:42;;;;;;;13.18;6.28;;;11.60;92.70;;;;;;5073734;28;20043;-52
2021/05/16 08:48:08;;;;;;;13.52;6.13;;;11.60;92.70;;;;;;5068385;28;20049;-52
2021/05/16 08:50:34;;;;;;;11.65;5.13;;;11.50;92.60;;;;;;5068984;28;20057;-53
2021/05/16 08:53:00;;;;;;;13.18;5.70;;;11.50;92.70;;;;;;5066001;28;20036;-53
2021/05/16 08:55:27;;;;;;;10.90;5.70;;;11.50;92.80;;;;;;5063543;28;20041;-53
2021/05/16 08:57:53;;;;;;;11.35;5.20;;;11.50;92.90;;;;;;5068283;28;20037;-53
2021/05/16 09:00:22;;;;;;;12.32;6.28;;;11.50;93.00;;;;;;5068324;28;20123;-55
2021/05/16 09:03:18;;;;;;;15.95;5.60;;;11.50;92.90;;;;;;5069901;28;20039;-55
2021/05/16 09:05:53;;;;;;;12.30;5.78;;;11.50;93.00;;;;;;5051407;28;20036;-54
2021/05/16 09:08:22;;;;;;;14.38;5.57;;;11.50;93.00;;;;;;5075476;28;20029;-55
2021/05/16 09:10:54;;;;;;;10.73;5.80;;;11.60;93.00;;;;;;5070009;28;20040;-55
2021/05/16 09:13:28;;;;;;;9.23;5.93;;;11.60;93.00;;;;;;5073020;28;20094;-55
2021/05/16 09:16:04;;;;;;;12.40;6.15;;;11.70;93.10;;;;;;5076393;28;20163;-55
2021/05/16 09:18:50;;;;;;;15.52;7.70;;;12.00;93.50;;;;;;5036839;28;20032;-55
2021/05/16 09:21:30;;;;;;;11.68;6.10;;;12.30;93.60;;;;;;5072488;28;20047;-56
2021/05/16 09:24:02;;;;;;;14.65;6.78;;;12.70;93.70;;;;;;5067939;28;20518;-55
2021/05/16 09:26:28;;;;;;;9.98;4.10;;;13.10;93.10;;;;;;5069618;28;20495;-56
2021/05/16 09:28:54;;;;;;;8.15;4.10;;;13.40;92.30;;;;;;5071642;28;20095;-56
2021/05/16 09:31:35;;;;;;;10.80;4.70;;;13.40;91.20;;;;;;5069756;28;20484;-56
2021/05/16 09:34:02;;;;;;;10.98;4.55;;;13.40;90.20;;;;;;5078764;28;20040;-55
2021/05/16 09:36:36;;;;;;;9.05;4.78;;;13.30;90.40;;;;;;5054855;28;20059;-56
2021/05/16 09:39:28;;;;;;;7.63;4.05;;;13.20;90.10;;;;;;5075066;28;20071;-56
2021/05/16 09:42:00;;;;;;;7.18;4.40;;;13.00;89.50;;;;;;5075299;28;20046;-57
2021/05/16 09:44:33;;;;;;;7.35;3.65;;;12.80;90.00;;;;;;5066159;28;20064;-56
2021/05/16 09:47:22;;;;;;;11.57;3.78;;;12.60;90.20;;;;;;5059862;28;20473;-56
2021/05/16 09:49:55;;;;;;;18.17;4.22;;;12.40;90.90;;;;;;5075141;28;20500;-57
2021/05/16 09:52:27;;;;;;;8.25;3.53;;;12.20;91.20;;;;;;5056297;28;20044;-56
2021/05/16 09:54:53;;;;;;;8.15;2.92;;;12.00;91.10;;;;;;5069459;28;20155;-56
2021/05/16 09:57:19;;;;;;;5.97;2.33;;;11.90;91.40;;;;;;5074382;28;20531;-56
2021/05/16 09:59:46;;;;;;;8.43;2.75;;;11.80;91.50;;;;;;5056393;28;20048;-57
2021/05/16 10:02:17;;;;;;;7.85;2.80;;;11.90;91.90;;;;;;5041757;28;20067;-57
2021/05/16 10:04:46;;;;;;;7.03;2.40;;;12.10;92.60;;;;;;5076405;28;20040;-57
2021/05/16 10:07:12;;;;;;;7.63;2.70;;;12.40;92.90;;;;;;5056425;28;20380;-57
2021/05/16 10:09:38;;;;;;;9.88;2.55;;;12.70;92.60;;;;;;5056116;28;20045;-57
2021/05/16 10:12:06;;;;;;;7.68;3.00;;;12.90;92.40;;;;;;5072995;28;20060;-57
2021/05/16 10:14:39;;;;;;;11.05;3.25;;;13.10;92.20;;;;;;5075678;28;20036;-56
2021/05/16 10:17:07;;;;;;;5.72;2.00;;;13.30;92.20;;;;;;5071629;28;20488;-56
2021/05/16 10:19:36;;;;;;;7.93;1.88;;;13.40;90.30;;;;;;5075379;28;20128;-56
2021/05/16 10:22:04;;;;;;;7.53;1.70;;;13.30;88.20;;;;;;5069903;28;20062;-54
2021/05/16 10:24:37;;;;;;;6.13;2.25;;;13.20;88.90;;;;;;5070764;28;20036;-54
2021/05/16 10:27:34;;;;;;;6.43;2.22;;;13.00;89.40;;;;;;5073643;28;20101;-56
2021/05/16 10:30:05;;;;;;;4.93;1.70;;;12.90;90.10;;;;;;5029431;28;20044;-55
2021/05/16 10:32:51;;;;;;;6.10;1.95;;;12.70;88.30;;;;;;5054538;28;20044;-57
2021/05/16 10:35:18;;;;;;;6.97;2.35;;;12.50;89.00;;;;;;5041607;28;20044;-50
2021/05/16 10:37:51;;;;;;;7.57;2.45;;;12.30;90.00;;;;;;5069320;28;20041;-51
2021/05/16 10:40:23;;;;;;;6.97;2.08;;;12.20;90.30;;;;;;5064947;28;20037;-55
2021/05/16 10:42:53;;;;;;;9.05;2.50;;;12.10;90.80;;;;;;5074295;28;20626;-55
2021/05/16 10:45:38;;;;;;;6.03;2.67;;;12.00;91.00;;;;;;5062358;28;20073;-50
2021/05/16 10:48:05;;;;;;;8.57;2.80;;;11.90;91.00;;;;;;5071813;28;20090;-51
2021/05/16 10:50:34;;;;;;;7.38;2.58;;;11.80;91.20;;;;;;5052330;28;20481;-52
2021/05/16 10:53:01;;;;;;;9.10;2.55;;;11.70;91.20;;;;;;5065275;28;20044;-52
2021/05/16 10:55:33;;;;;;;7.57;2.75;;;11.60;91.30;;;;;;5064094;28;20523;-54
2021/05/16 10:57:59;;;;;;;10.60;3.13;;;11.60;91.50;;;;;;5068749;28;20489;-54
2021/05/16 11:00:31;;;;;;;8.45;3.10;;;11.50;91.40;;;;;;5054503;28;20048;-53
2021/05/16 11:03:10;;;;;;;8.43;3.07;;;11.50;91.70;;;;;;5066854;28;20401;-50
2021/05/16 11:05:50;;;;;;;8.15;3.03;;;11.40;91.60;;;;;;5069956;28;20037;-50
2021/05/16 11:08:16;;;;;;;10.02;3.42;;;11.40;91.90;;;;;;5072125;28;20067;-50
2021/05/16 11:10:43;;;;;;;7.75;2.88;;;11.40;92.10;;;;;;5070258;28;20465;-53
2021/05/16 11:13:18;;;;;;;8.40;3.50;;;11.40;92.30;;;;;;5060120;28;20368;-51
2021/05/16 11:15:47;;;;;;;5.22;2.83;;;11.50;92.50;;;;;;5068946;28;20615;-53
2021/05/16 11:18:19;;;;;;;7.03;2.88;;;11.50;92.50;;;;;;5066059;28;20040;-54
2021/05/16 11:20:53;;;;;;;11.23;4.13;;;11.50;92.30;;;;;;5063859;28;20052;-52
2021/05/16 11:23:27;;;;;;;9.60;3.90;;;11.60;92.40;;;;;;5069268;28;20437;-51
2021/05/16 11:26:00;;;;;;;9.40;3.42;;;11.60;92.70;;;;;;5069453;28;20044;-50
2021/05/16 11:28:31;;;;;;;10.45;3.78;;;11.80;92.90;;;;;;5060752;28;20036;-53
2021/05/16 11:30:58;;;;;;;7.60;3.10;;;12.20;92.90;;;;;;5072897;28;20047;-52
2021/05/16 11:33:32;;;;;;;8.73;2.95;;;12.30;92.80;;;;;;5035696;28;20037;-53
2021/05/16 11:36:05;;;;;;;9.18;2.90;;;12.40;92.10;;;;;;5072467;28;20051;-56
2021/05/16 11:38:33;;;;;;;8.10;3.85;;;12.50;92.00;;;;;;5071736;28;20067;-56
2021/05/16 11:40:59;;;;;;;9.60;3.90;;;12.70;92.30;;;;;;5070878;28;20044;-56
2021/05/16 11:43:41;;;;;;;10.05;3.88;;;13.00;92.60;;;;;;5071417;28;20044;-54
2021/05/16 11:46:11;;;;;;;11.85;4.72;;;13.30;92.60;;;;;;5055054;28;20067;-58
2021/05/16 11:48:39;;;;;;;9.77;3.78;;;13.60;92.40;;;;;;5072683;28;20032;-55
2021/05/16 11:51:16;;;;;;;10.82;4.22;;;13.70;91.50;;;;;;5069535;28;20047;-53
2021/05/16 11:53:49;;;;;;;8.63;3.83;;;13.70;91.40;;;;;;5043705;28;20037;-55
2021/05/16 11:56:29;;;;;;;9.27;4.05;;;13.80;91.20;;;;;;5070974;28;20036;-56
2021/05/16 11:58:59;;;;;;;9.82;4.63;;;14.00;91.30;;;;;;5048396;28;20079;-57
2021/05/16 12:01:32;;;;;;;8.07;3.92;;;14.10;91.20;;;;;;5051552;28;20507;-56
2021/05/16 12:04:08;;;;;;;9.07;3.70;;;14.30;90.70;;;;;;5048161;28;20135;-56
2021/05/16 12:06:47;;;;;;;12.57;3.78;;;14.50;88.20;;;;;;5066126;28;20045;-56
2021/05/16 12:09:15;;;;;;;10.93;3.83;;;14.60;88.40;;;;;;5044484;28;20049;-57
2021/05/16 12:11:43;;;;;;;9.40;3.72;;;14.70;87.90;;;;;;5062429;28;20041;-57
2021/05/16 12:14:15;;;;;;;10.65;3.53;;;14.60;87.40;;;;;;5066373;28;20097;-54
2021/05/16 12:16:59;;;;;;;9.95;2.97;;;14.60;87.20;;;;;;5052828;28;20496;-56
2021/05/16 12:19:28;;;;;;;7.18;3.00;;;14.60;83.70;;;;;;5050355;28;20093;-56
2021/05/16 12:21:59;;;;;;;8.93;3.28;;;14.40;84.70;;;;;;5061050;28;20056;-57
2021/05/16 12:24:30;;;;;;;10.38;3.53;;;14.20;84.30;;;;;;5068189;28;20057;-52
2021/05/16 12:26:57;;;;;;;9.10;3.33;;;14.00;86.40;;;;;;5070470;28;20040;-52
2021/05/16 12:29:23;;;;;;;7.90;3.08;;;13.80;85.60;;;;;;5067290;28;20290;-52
2021/05/16 12:31:49;;;;;;;7.20;3.00;;;13.70;86.50;;;;;;5068655;28;20049;-55
2021/05/16 12:34:21;;;;;;;8.32;2.83;;;13.60;86.70;;;;;;5069849;28;20041;-54
2021/05/16 12:36:54;;;;;;;10.20;3.40;;;13.50;86.30;;;;;;5057472;28;20044;-56